createdAt,value
2019-01-30T00:00:51.312Z,2.60
2019-01-30T00:01:51.297Z,2.60
2019-01-30T00:02:51.301Z,3.80
2019-01-30T00:03:51.313Z,3.10
2019-01-30T00:04:51.270Z,2.90
2019-01-30T00:05:51.266Z,3.50
2019-01-30T00:06:51.254Z,3.50
2019-01-30T00:07:51.258Z,3.10
2019-01-30T00:08:51.236Z,4.30
2019-01-30T00:09:51.216Z,3.00
2019-01-30T00:10:51.220Z,3.60
2019-01-30T00:11:51.201Z,3.40
2019-01-30T00:12:51.191Z,3.70
2019-01-30T00:13:51.195Z,3.10
2019-01-30T00:14:51.172Z,3.60
2019-01-30T00:15:56.505Z,4.60
2019-01-30T00:16:52.143Z,4.10
2019-01-30T00:17:51.129Z,2.80
2019-01-30T00:18:51.134Z,4.30
2019-01-30T00:19:51.113Z,3.90
2019-01-30T00:20:51.102Z,2.70
2019-01-30T00:21:51.103Z,3.10
2019-01-30T00:22:51.084Z,3.30
2019-01-30T00:23:51.083Z,2.90
2019-01-30T00:24:51.058Z,3.00
2019-01-30T00:25:51.052Z,3.20
2019-01-30T00:26:51.056Z,3.30
2019-01-30T00:27:51.044Z,2.50
2019-01-30T00:28:51.050Z,2.80
2019-01-30T00:29:51.008Z,3.50
2019-01-30T00:30:50.999Z,3.60
2019-01-30T00:31:50.987Z,3.40
2019-01-30T00:32:51.021Z,2.80
2019-01-30T00:33:50.987Z,3.30
2019-01-30T00:34:50.958Z,2.50
2019-01-30T00:35:50.956Z,3.20
2019-01-30T00:36:50.937Z,3.10
2019-01-30T00:37:50.932Z,3.20
2019-01-30T00:38:50.931Z,2.80
2019-01-30T00:39:50.909Z,5.10
2019-01-30T00:40:50.900Z,3.50
2019-01-30T00:41:50.889Z,3.20
2019-01-30T00:42:50.884Z,3.30
2019-01-30T00:43:50.890Z,3.10
2019-01-30T00:44:50.851Z,4.10
2019-01-30T00:45:50.852Z,2.60
2019-01-30T00:46:50.835Z,3.30
2019-01-30T00:47:50.865Z,3.70
2019-01-30T00:48:50.835Z,3.20
2019-01-30T00:49:50.805Z,2.90
2019-01-30T00:50:58.841Z,3.30
2019-01-30T00:51:50.791Z,3.00
2019-01-30T00:52:50.775Z,3.30
2019-01-30T00:53:50.771Z,3.50
2019-01-30T00:54:50.768Z,3.20
2019-01-30T00:55:50.750Z,3.30
2019-01-30T00:56:50.727Z,4.00
2019-01-30T00:57:50.720Z,3.00
2019-01-30T00:58:50.728Z,3.60
2019-01-30T00:59:50.704Z,3.50
2019-01-30T01:00:50.690Z,2.90
2019-01-30T01:01:50.685Z,3.50
2019-01-30T01:02:50.673Z,3.20
2019-01-30T01:03:50.697Z,3.40
2019-01-30T01:04:50.648Z,3.00
2019-01-30T01:05:50.644Z,4.30
2019-01-30T01:06:50.635Z,2.70
2019-01-30T01:07:50.625Z,3.20
2019-01-30T01:08:50.619Z,3.20
2019-01-30T01:09:50.601Z,3.30
2019-01-30T01:10:50.595Z,3.90
2019-01-30T01:11:50.586Z,3.20
2019-01-30T01:12:50.575Z,3.30
2019-01-30T01:13:50.574Z,3.30
2019-01-30T01:14:50.553Z,4.00
2019-01-30T01:15:50.539Z,3.20
2019-01-30T01:16:50.532Z,3.00
2019-01-30T01:17:50.535Z,3.50
2019-01-30T01:18:50.552Z,3.60
2019-01-30T01:19:50.502Z,3.50
2019-01-30T01:20:50.492Z,3.10
2019-01-30T01:21:50.477Z,3.20
2019-01-30T01:22:50.477Z,2.70
2019-01-30T01:23:50.472Z,3.60
2019-01-30T01:24:50.452Z,3.60
2019-01-30T01:25:50.439Z,2.80
2019-01-30T01:26:50.423Z,3.50
2019-01-30T01:27:50.424Z,3.30
2019-01-30T01:28:50.419Z,3.70
2019-01-30T01:29:50.407Z,3.70
2019-01-30T01:30:50.376Z,3.00
2019-01-30T01:31:50.381Z,3.40
2019-01-30T01:32:50.359Z,4.20
2019-01-30T01:33:50.369Z,3.40
2019-01-30T01:34:50.338Z,3.30
2019-01-30T01:35:50.332Z,4.30
2019-01-30T01:36:50.322Z,3.40
2019-01-30T01:37:50.325Z,3.00
2019-01-30T01:38:50.315Z,2.90
2019-01-30T01:39:50.986Z,3.80
2019-01-30T01:40:50.281Z,3.10
2019-01-30T01:41:50.268Z,3.50
2019-01-30T01:42:50.293Z,3.70
2019-01-30T01:43:50.285Z,3.40
2019-01-30T01:44:50.241Z,3.10
2019-01-30T01:45:50.235Z,3.00
2019-01-30T01:46:50.225Z,3.80
2019-01-30T01:47:50.205Z,3.60
2019-01-30T01:48:50.222Z,3.20
2019-01-30T01:49:50.185Z,3.00
2019-01-30T01:50:50.175Z,3.90
2019-01-30T01:51:50.175Z,3.30
2019-01-30T01:52:50.165Z,4.20
2019-01-30T01:53:50.201Z,3.50
2019-01-30T01:54:50.140Z,3.50
2019-01-30T01:55:50.131Z,3.20
2019-01-30T01:56:50.120Z,3.60
2019-01-30T01:57:50.104Z,3.70
2019-01-30T01:58:50.119Z,4.20
2019-01-30T01:59:50.100Z,3.40
2019-01-30T02:00:50.075Z,3.60
2019-01-30T02:01:50.101Z,3.10
2019-01-30T02:02:50.045Z,4.30
2019-01-30T02:03:50.068Z,3.40
2019-01-30T02:04:50.049Z,3.20
2019-01-30T02:05:50.025Z,2.80
2019-01-30T02:06:50.017Z,3.60
2019-01-30T02:07:50.000Z,3.20
2019-01-30T02:08:50.018Z,2.90
2019-01-30T02:09:50.053Z,3.60
2019-01-30T02:10:49.967Z,3.90
2019-01-30T02:11:49.965Z,3.70
2019-01-30T02:12:49.948Z,4.40
2019-01-30T02:13:49.940Z,3.90
2019-01-30T02:14:49.941Z,3.70
2019-01-30T02:15:49.936Z,3.90
2019-01-30T02:16:49.904Z,3.40
2019-01-30T02:17:49.941Z,3.60
2019-01-30T02:18:49.878Z,4.70
2019-01-30T02:19:49.892Z,3.90
2019-01-30T02:20:49.876Z,3.60
2019-01-30T02:21:49.861Z,3.80
2019-01-30T02:22:49.856Z,3.20
2019-01-30T02:23:49.855Z,3.70
2019-01-30T02:24:49.846Z,3.70
2019-01-30T02:25:49.826Z,3.80
2019-01-30T02:26:49.807Z,3.20
2019-01-30T02:27:56.843Z,3.50
2019-01-30T02:28:56.879Z,3.10
2019-01-30T02:29:56.821Z,2.90
2019-01-30T02:30:57.324Z,4.20
2019-01-30T02:31:57.795Z,3.50
2019-01-30T02:32:49.750Z,3.60
2019-01-30T02:33:49.731Z,3.40
2019-01-30T02:34:49.735Z,4.00
2019-01-30T02:35:49.714Z,3.90
2019-01-30T02:36:49.700Z,3.00
2019-01-30T02:37:49.705Z,3.30
2019-01-30T02:38:49.691Z,3.60
2019-01-30T02:39:49.697Z,4.10
2019-01-30T02:40:49.663Z,4.70
2019-01-30T02:41:49.657Z,3.20
2019-01-30T02:42:49.634Z,3.50
2019-01-30T02:43:49.627Z,4.00
2019-01-30T02:44:49.638Z,2.80
2019-01-30T02:45:49.626Z,3.40
2019-01-30T02:46:49.607Z,3.80
2019-01-30T02:47:49.582Z,3.80
2019-01-30T02:48:49.586Z,3.90
2019-01-30T02:49:49.580Z,3.60
2019-01-30T02:50:49.558Z,3.60
2019-01-30T02:51:49.564Z,3.70
2019-01-30T02:52:49.531Z,3.10
2019-01-30T02:53:49.534Z,4.00
2019-01-30T02:54:49.540Z,3.20
2019-01-30T02:55:49.509Z,3.50
2019-01-30T02:56:49.492Z,3.10
2019-01-30T02:57:49.492Z,4.00
2019-01-30T02:58:49.505Z,3.00
2019-01-30T02:59:49.500Z,3.40
2019-01-30T03:00:58.957Z,3.90
2019-01-30T03:01:50.449Z,3.60
2019-01-30T03:02:49.439Z,3.30
2019-01-30T03:03:49.437Z,3.40
2019-01-30T03:04:49.449Z,2.80
2019-01-30T03:05:49.397Z,3.40
2019-01-30T03:06:49.397Z,3.60
2019-01-30T03:07:49.397Z,4.00
2019-01-30T03:08:49.370Z,3.20
2019-01-30T03:09:49.379Z,3.40
2019-01-30T03:10:49.351Z,3.60
2019-01-30T03:11:49.344Z,3.30
2019-01-30T03:12:49.349Z,4.20
2019-01-30T03:13:49.319Z,3.40
2019-01-30T03:14:49.325Z,3.80
2019-01-30T03:15:49.305Z,3.80
2019-01-30T03:16:49.290Z,3.80
2019-01-30T03:17:49.276Z,3.50
2019-01-30T03:18:49.274Z,3.90
2019-01-30T03:19:49.277Z,3.50
2019-01-30T03:20:49.243Z,3.30
2019-01-30T03:21:49.230Z,3.70
2019-01-30T03:22:49.228Z,3.30
2019-01-30T03:23:49.234Z,3.60
2019-01-30T03:24:49.240Z,4.00
2019-01-30T03:25:49.204Z,3.50
2019-01-30T03:26:49.187Z,4.20
2019-01-30T03:27:49.184Z,3.40
2019-01-30T03:28:49.170Z,3.30
2019-01-30T03:29:49.167Z,3.90
2019-01-30T03:30:49.157Z,3.20
2019-01-30T03:31:49.186Z,4.00
2019-01-30T03:32:49.146Z,3.90
2019-01-30T03:33:49.114Z,4.40
2019-01-30T03:34:49.123Z,4.60
2019-01-30T03:35:49.087Z,3.70
2019-01-30T03:36:49.079Z,3.20
2019-01-30T03:37:49.087Z,3.90
2019-01-30T03:38:49.065Z,3.40
2019-01-30T03:39:49.072Z,4.10
2019-01-30T03:40:49.048Z,3.50
2019-01-30T03:41:49.030Z,4.00
2019-01-30T03:42:49.015Z,3.20
2019-01-30T03:43:49.018Z,3.60
2019-01-30T03:44:49.029Z,3.90
2019-01-30T03:45:48.999Z,3.20
2019-01-30T03:46:48.983Z,3.40
2019-01-30T03:47:48.969Z,4.00
2019-01-30T03:48:48.950Z,3.40
2019-01-30T03:49:48.959Z,3.20
2019-01-30T03:50:49.865Z,3.90
2019-01-30T03:51:48.930Z,2.90
2019-01-30T03:52:48.934Z,3.70
2019-01-30T03:53:48.908Z,3.80
2019-01-30T03:54:49.021Z,4.20
2019-01-30T03:55:48.900Z,3.80
2019-01-30T03:56:48.966Z,3.70
2019-01-30T03:57:48.942Z,3.70
2019-01-30T03:58:48.876Z,3.90
2019-01-30T03:59:48.882Z,3.20
2019-01-30T04:00:48.848Z,4.50
2019-01-30T04:01:48.852Z,4.00
2019-01-30T04:02:48.835Z,3.10
2019-01-30T04:03:48.823Z,4.00
2019-01-30T04:04:48.819Z,4.10
2019-01-30T04:05:48.797Z,4.80
2019-01-30T04:06:48.786Z,3.90
2019-01-30T04:07:48.776Z,4.60
2019-01-30T04:08:48.765Z,3.80
2019-01-30T04:09:48.815Z,4.10
2019-01-30T04:10:48.750Z,3.60
2019-01-30T04:11:48.724Z,3.90
2019-01-30T04:12:48.723Z,3.70
2019-01-30T04:13:48.704Z,3.80
2019-01-30T04:14:48.740Z,4.10
2019-01-30T04:15:48.680Z,3.80
2019-01-30T04:16:48.673Z,4.00
2019-01-30T04:17:48.658Z,3.80
2019-01-30T04:18:48.657Z,4.50
2019-01-30T04:19:48.649Z,5.10
2019-01-30T04:20:48.671Z,4.20
2019-01-30T04:21:48.627Z,3.80
2019-01-30T04:22:48.625Z,4.50
2019-01-30T04:23:48.602Z,3.70
2019-01-30T04:24:48.602Z,4.40
2019-01-30T04:25:48.605Z,4.20
2019-01-30T04:26:48.578Z,3.10
2019-01-30T04:27:48.556Z,5.60
2019-01-30T04:28:48.543Z,4.10
2019-01-30T04:29:48.541Z,3.50
2019-01-30T04:30:48.548Z,3.80
2019-01-30T04:31:48.525Z,4.60
2019-01-30T04:32:48.513Z,4.40
2019-01-30T04:33:48.489Z,3.60
2019-01-30T04:34:48.485Z,3.20
2019-01-30T04:35:48.479Z,5.20
2019-01-30T04:36:48.468Z,3.90
2019-01-30T04:37:48.457Z,3.20
2019-01-30T04:38:48.459Z,4.60
2019-01-30T04:39:48.429Z,3.80
2019-01-30T04:40:48.438Z,3.70
2019-01-30T04:41:48.405Z,5.00
2019-01-30T04:42:48.439Z,3.60
2019-01-30T04:43:56.378Z,4.20
2019-01-30T04:44:48.386Z,3.20
2019-01-30T04:45:48.393Z,4.60
2019-01-30T04:46:48.351Z,3.90
2019-01-30T04:47:55.401Z,4.20
2019-01-30T04:48:48.339Z,4.20
2019-01-30T04:49:48.327Z,4.00
2019-01-30T04:50:48.340Z,3.40
2019-01-30T04:51:48.315Z,3.60
2019-01-30T04:52:48.295Z,3.50
2019-01-30T04:53:48.291Z,3.70
2019-01-30T04:54:56.335Z,3.10
2019-01-30T04:55:48.286Z,4.00
2019-01-30T04:56:48.261Z,3.40
2019-01-30T04:57:48.266Z,3.60
2019-01-30T04:58:48.237Z,3.80
2019-01-30T04:59:48.241Z,3.80
2019-01-30T05:00:48.229Z,4.00
2019-01-30T05:01:49.620Z,3.40
2019-01-30T05:02:48.280Z,3.20
2019-01-30T05:03:48.194Z,3.30
2019-01-30T05:04:48.174Z,4.40
2019-01-30T05:05:48.203Z,3.40
2019-01-30T05:06:48.162Z,3.50
2019-01-30T05:07:48.186Z,4.10
2019-01-30T05:08:48.138Z,3.40
2019-01-30T05:09:48.124Z,3.80
2019-01-30T05:10:48.129Z,3.20
2019-01-30T05:11:48.117Z,3.60
2019-01-30T05:12:48.099Z,2.80
2019-01-30T05:13:48.107Z,4.20
2019-01-30T05:14:48.094Z,3.90
2019-01-30T05:15:48.092Z,3.70
2019-01-30T05:16:48.051Z,4.40
2019-01-30T05:17:48.051Z,4.50
2019-01-30T05:18:48.026Z,3.70
2019-01-30T05:19:48.019Z,3.70
2019-01-30T05:20:48.040Z,2.90
2019-01-30T05:21:48.013Z,3.40
2019-01-30T05:22:47.986Z,4.00
2019-01-30T05:23:48.952Z,4.00
2019-01-30T05:24:47.968Z,4.50
2019-01-30T05:25:47.982Z,4.50
2019-01-30T05:26:47.948Z,3.70
2019-01-30T05:27:47.944Z,3.50
2019-01-30T05:28:47.930Z,3.80
2019-01-30T05:29:47.917Z,4.30
2019-01-30T05:30:47.931Z,4.00
2019-01-30T05:31:47.897Z,3.40
2019-01-30T05:32:47.899Z,4.00
2019-01-30T05:33:56.476Z,3.90
2019-01-30T05:34:47.874Z,4.00
2019-01-30T05:35:47.863Z,4.30
2019-01-30T05:36:47.837Z,3.70
2019-01-30T05:37:51.113Z,3.50
2019-01-30T05:38:47.825Z,3.90
2019-01-30T05:39:47.809Z,3.10
2019-01-30T05:40:47.822Z,3.50
2019-01-30T05:41:47.801Z,3.90
2019-01-30T05:42:47.786Z,4.20
2019-01-30T05:43:47.770Z,4.80
2019-01-30T05:44:47.765Z,4.40
2019-01-30T05:45:47.766Z,4.50
2019-01-30T05:46:47.746Z,4.20
2019-01-30T05:47:47.725Z,3.30
2019-01-30T05:48:47.735Z,3.10
2019-01-30T05:49:47.704Z,4.30
2019-01-30T05:50:47.708Z,2.90
2019-01-30T05:51:47.717Z,3.90
2019-01-30T05:52:47.691Z,3.50
2019-01-30T05:53:47.677Z,3.80
2019-01-30T05:54:47.673Z,3.80
2019-01-30T05:55:47.658Z,3.60
2019-01-30T05:56:47.631Z,2.90
2019-01-30T05:57:47.634Z,3.80
2019-01-30T05:58:47.621Z,5.20
2019-01-30T05:59:47.607Z,3.40
2019-01-30T06:00:47.609Z,3.10
2019-01-30T06:01:47.588Z,3.30
2019-01-30T06:02:47.584Z,3.90
2019-01-30T06:03:47.583Z,3.60
2019-01-30T06:04:47.568Z,3.40
2019-01-30T06:05:47.576Z,3.20
2019-01-30T06:06:47.539Z,3.70
2019-01-30T06:07:47.522Z,3.30
2019-01-30T06:08:47.537Z,3.60
2019-01-30T06:09:47.509Z,3.90
2019-01-30T06:10:47.516Z,5.20
2019-01-30T06:11:47.505Z,3.50
2019-01-30T06:12:47.509Z,3.50
2019-01-30T06:13:47.473Z,4.50
2019-01-30T06:14:47.502Z,2.90
2019-01-30T06:15:47.476Z,3.20
2019-01-30T06:16:47.441Z,4.20
2019-01-30T06:17:47.435Z,3.60
2019-01-30T06:18:47.460Z,4.10
2019-01-30T06:19:47.408Z,3.90
2019-01-30T06:20:47.455Z,4.10
2019-01-30T06:21:47.381Z,3.90
2019-01-30T06:22:47.373Z,2.90
2019-01-30T06:23:47.382Z,3.20
2019-01-30T06:24:47.359Z,2.90
2019-01-30T06:25:47.343Z,4.70
2019-01-30T06:26:47.355Z,3.70
2019-01-30T06:27:47.328Z,3.20
2019-01-30T06:28:47.324Z,3.50
2019-01-30T06:29:47.299Z,2.90
2019-01-30T06:30:47.286Z,3.90
2019-01-30T06:31:47.301Z,4.00
2019-01-30T06:32:47.262Z,3.20
2019-01-30T06:33:47.250Z,4.30
2019-01-30T06:34:47.246Z,3.70
2019-01-30T06:35:47.237Z,3.00
2019-01-30T06:36:47.248Z,4.20
2019-01-30T06:37:47.221Z,3.30
2019-01-30T06:38:47.209Z,3.00
2019-01-30T06:39:47.193Z,3.00
2019-01-30T06:40:47.179Z,3.80
2019-01-30T06:41:47.195Z,4.10
2019-01-30T06:42:47.714Z,3.40
2019-01-30T06:43:47.155Z,3.50
2019-01-30T06:44:47.149Z,3.00
2019-01-30T06:45:47.136Z,3.20
2019-01-30T06:46:47.142Z,4.60
2019-01-30T06:47:47.113Z,3.60
2019-01-30T06:48:47.106Z,3.40
2019-01-30T06:49:47.093Z,3.60
2019-01-30T06:50:47.095Z,4.10
2019-01-30T06:51:47.083Z,3.30
2019-01-30T06:52:47.067Z,4.10
2019-01-30T06:53:47.051Z,4.30
2019-01-30T06:54:47.052Z,3.40
2019-01-30T06:55:47.019Z,3.90
2019-01-30T06:56:47.030Z,3.30
2019-01-30T06:57:47.011Z,3.60
2019-01-30T06:58:46.997Z,3.00
2019-01-30T06:59:46.995Z,3.20
2019-01-30T07:00:46.977Z,3.20
2019-01-30T07:01:46.996Z,3.60
2019-01-30T07:02:46.966Z,3.00
2019-01-30T07:03:46.941Z,3.80
2019-01-30T07:04:46.942Z,5.00
2019-01-30T07:05:46.927Z,3.40
2019-01-30T07:06:46.937Z,3.70
2019-01-30T07:07:46.921Z,3.30
2019-01-30T07:08:46.892Z,3.80
2019-01-30T07:09:46.880Z,4.00
2019-01-30T07:10:46.874Z,4.20
2019-01-30T07:11:46.878Z,4.20
2019-01-30T07:12:46.874Z,3.70
2019-01-30T07:13:46.847Z,3.20
2019-01-30T07:14:46.833Z,2.90
2019-01-30T07:15:46.828Z,4.20
2019-01-30T07:16:46.830Z,3.00
2019-01-30T07:17:46.807Z,3.60
2019-01-30T07:18:46.797Z,3.80
2019-01-30T07:19:46.772Z,3.20
2019-01-30T07:20:46.777Z,3.90
2019-01-30T07:21:46.768Z,3.80
2019-01-30T07:22:46.757Z,3.00
2019-01-30T07:23:46.732Z,4.00
2019-01-30T07:24:46.734Z,3.20
2019-01-30T07:25:46.723Z,3.20
2019-01-30T07:26:46.741Z,3.50
2019-01-30T07:27:46.688Z,3.60
2019-01-30T07:28:46.694Z,3.10
2019-01-30T07:29:46.679Z,3.50
2019-01-30T07:30:46.667Z,3.00
2019-01-30T07:31:47.467Z,3.70
2019-01-30T07:32:46.664Z,2.90
2019-01-30T07:33:46.639Z,3.70
2019-01-30T07:34:46.633Z,3.00
2019-01-30T07:35:46.623Z,3.30
2019-01-30T07:36:46.619Z,3.70
2019-01-30T07:37:46.595Z,2.80
2019-01-30T07:38:46.584Z,3.00
2019-01-30T07:39:46.582Z,2.90
2019-01-30T07:40:46.573Z,2.70
2019-01-30T07:41:46.574Z,3.10
2019-01-30T07:42:46.556Z,3.40
2019-01-30T07:43:46.533Z,2.60
2019-01-30T07:44:50.853Z,2.90
2019-01-30T07:45:46.507Z,3.80
2019-01-30T07:46:46.525Z,2.50
2019-01-30T07:47:46.488Z,2.50
2019-01-30T07:48:46.485Z,3.20
2019-01-30T07:49:46.486Z,2.90
2019-01-30T07:50:46.469Z,3.20
2019-01-30T07:51:46.467Z,3.30
2019-01-30T07:52:46.438Z,2.40
2019-01-30T07:53:46.429Z,2.80
2019-01-30T07:54:46.417Z,2.20
2019-01-30T07:55:46.408Z,2.80
2019-01-30T07:56:46.429Z,3.20
2019-01-30T07:57:46.406Z,2.40
2019-01-30T07:58:46.378Z,2.50
2019-01-30T07:59:46.362Z,3.10
2019-01-30T08:00:46.373Z,2.30
2019-01-30T08:01:46.392Z,3.40
2019-01-30T08:02:52.937Z,3.20
2019-01-30T08:03:47.320Z,2.70
2019-01-30T08:04:46.310Z,1.90
2019-01-30T08:05:46.303Z,2.90
2019-01-30T08:06:46.300Z,3.00
2019-01-30T08:07:46.313Z,2.10
2019-01-30T08:08:46.263Z,2.70
2019-01-30T08:09:46.266Z,2.90
2019-01-30T08:10:46.253Z,1.70
2019-01-30T08:11:46.249Z,1.90
2019-01-30T08:12:46.225Z,2.50
2019-01-30T08:13:46.228Z,3.00
2019-01-30T08:14:46.199Z,2.40
2019-01-30T08:15:46.195Z,2.00
2019-01-30T08:16:47.910Z,3.20
2019-01-30T08:17:46.185Z,2.20
2019-01-30T08:18:46.181Z,3.30
2019-01-30T08:19:46.172Z,1.60
2019-01-30T08:20:46.150Z,3.10
2019-01-30T08:21:46.167Z,2.70
2019-01-30T08:22:46.122Z,1.90
2019-01-30T08:23:46.344Z,2.20
2019-01-30T08:24:46.536Z,2.70
2019-01-30T08:25:46.121Z,2.20
2019-01-30T08:26:46.173Z,3.30
2019-01-30T08:27:46.084Z,1.90
2019-01-30T08:28:46.347Z,3.20
2019-01-30T08:29:46.385Z,3.00
2019-01-30T08:30:46.055Z,2.00
2019-01-30T08:31:46.508Z,2.80
2019-01-30T08:32:46.117Z,2.50
2019-01-30T08:33:54.076Z,2.50
2019-01-30T08:34:46.503Z,2.30
2019-01-30T08:35:46.078Z,3.50
2019-01-30T08:36:46.001Z,2.90
2019-01-30T08:37:46.139Z,2.40
2019-01-30T08:38:45.974Z,2.50
2019-01-30T08:39:45.942Z,2.30
2019-01-30T08:40:45.952Z,2.10
2019-01-30T08:41:45.940Z,2.70
2019-01-30T08:42:45.952Z,3.30
2019-01-30T08:43:45.938Z,3.00
2019-01-30T08:44:47.085Z,3.90
2019-01-30T08:45:45.891Z,3.10
2019-01-30T08:46:45.929Z,2.00
2019-01-30T08:47:45.881Z,2.40
2019-01-30T08:48:45.917Z,3.20
2019-01-30T08:49:45.859Z,2.90
2019-01-30T08:50:45.834Z,2.70
2019-01-30T08:51:45.830Z,3.90
2019-01-30T08:52:45.835Z,3.30
2019-01-30T08:53:45.812Z,2.20
2019-01-30T08:54:45.816Z,3.30
2019-01-30T08:55:45.844Z,3.60
2019-01-30T08:56:53.088Z,4.10
2019-01-30T08:57:46.800Z,2.70
2019-01-30T08:58:45.748Z,2.90
2019-01-30T08:59:45.763Z,2.70
2019-01-30T09:00:45.744Z,2.40
2019-01-30T09:01:45.732Z,2.90
2019-01-30T09:02:45.754Z,2.40
2019-01-30T09:03:45.735Z,2.40
2019-01-30T09:04:45.703Z,2.30
2019-01-30T09:05:45.737Z,3.30
2019-01-30T09:06:45.745Z,4.10
2019-01-30T09:07:45.691Z,3.20
2019-01-30T09:08:45.643Z,3.00
2019-01-30T09:09:45.644Z,3.20
2019-01-30T09:10:45.630Z,2.40
2019-01-30T09:11:45.626Z,3.30
2019-01-30T09:12:45.647Z,1.90
2019-01-30T09:13:45.593Z,3.10
2019-01-30T09:14:45.606Z,3.00
2019-01-30T09:15:45.576Z,2.90
2019-01-30T09:16:45.575Z,3.20
2019-01-30T09:17:45.561Z,2.60
2019-01-30T09:18:45.535Z,3.90
2019-01-30T09:19:45.544Z,2.30
2019-01-30T09:20:45.524Z,3.10
2019-01-30T09:21:45.538Z,2.00
2019-01-30T09:22:45.540Z,3.70
2019-01-30T09:23:45.485Z,1.40
2019-01-30T09:24:45.488Z,2.60
2019-01-30T09:25:45.489Z,3.00
2019-01-30T09:26:45.484Z,3.20
2019-01-30T09:27:45.471Z,1.90
2019-01-30T09:28:45.439Z,2.70
2019-01-30T09:29:45.435Z,3.80
2019-01-30T09:30:45.429Z,2.00
2019-01-30T09:31:45.411Z,2.60
2019-01-30T09:32:45.428Z,3.00
2019-01-30T09:33:45.427Z,2.80
2019-01-30T09:34:46.036Z,1.50
2019-01-30T09:35:45.370Z,1.90
2019-01-30T09:36:45.393Z,2.00
2019-01-30T09:37:45.440Z,1.60
2019-01-30T09:38:45.394Z,2.00
2019-01-30T09:39:45.321Z,2.40
2019-01-30T09:40:45.309Z,1.50
2019-01-30T09:41:45.296Z,2.60
2019-01-30T09:42:45.724Z,2.10
2019-01-30T09:43:45.292Z,1.40
2019-01-30T09:44:45.274Z,1.60
2019-01-30T09:45:45.285Z,1.80
2019-01-30T09:46:45.258Z,1.20
2019-01-30T09:47:45.251Z,0.80
2019-01-30T09:48:45.232Z,2.10
2019-01-30T09:49:45.231Z,1.10
2019-01-30T09:50:45.216Z,1.20
2019-01-30T09:51:45.212Z,2.70
2019-01-30T09:52:45.218Z,1.70
2019-01-30T09:53:45.194Z,1.90
2019-01-30T09:54:45.178Z,0.70
2019-01-30T09:55:45.154Z,2.30
2019-01-30T09:56:45.269Z,1.20
2019-01-30T09:57:45.160Z,1.70
2019-01-30T09:58:45.127Z,1.10
2019-01-30T09:59:45.123Z,2.10
2019-01-30T10:00:45.110Z,1.50
2019-01-30T10:01:45.096Z,2.10
2019-01-30T10:02:45.119Z,1.50
2019-01-30T10:03:45.088Z,1.20
2019-01-30T10:04:45.061Z,1.60
2019-01-30T10:05:45.038Z,1.50
2019-01-30T10:06:45.032Z,2.00
2019-01-30T10:07:45.115Z,1.40
2019-01-30T10:08:45.020Z,2.00
2019-01-30T10:09:45.009Z,1.30
2019-01-30T10:10:44.990Z,0.90
2019-01-30T10:11:44.988Z,1.50
2019-01-30T10:12:44.989Z,1.30
2019-01-30T10:13:44.974Z,2.10
2019-01-30T10:14:44.953Z,1.20
2019-01-30T10:15:44.930Z,2.30
2019-01-30T10:16:44.924Z,1.50
2019-01-30T10:17:44.967Z,1.50
2019-01-30T10:18:44.904Z,1.20
2019-01-30T10:19:44.901Z,0.90
2019-01-30T10:20:44.880Z,1.90
2019-01-30T10:21:44.887Z,2.00
2019-01-30T10:22:44.895Z,1.50
2019-01-30T10:23:44.852Z,2.60
2019-01-30T10:24:44.869Z,1.90
2019-01-30T10:25:44.838Z,1.70
2019-01-30T10:26:44.825Z,1.10
2019-01-30T10:27:44.902Z,1.60
2019-01-30T10:28:44.831Z,1.70
2019-01-30T10:29:44.816Z,1.60
2019-01-30T10:30:44.782Z,1.70
2019-01-30T10:31:44.781Z,1.60
2019-01-30T10:32:44.803Z,0.90
2019-01-30T10:33:46.649Z,1.70
2019-01-30T10:34:44.744Z,1.60
2019-01-30T10:35:44.742Z,1.90
2019-01-30T10:36:44.714Z,0.90
2019-01-30T10:37:44.712Z,1.70
2019-01-30T10:38:45.070Z,1.10
2019-01-30T10:39:44.686Z,1.80
2019-01-30T10:40:44.667Z,1.60
2019-01-30T10:41:44.665Z,1.30
2019-01-30T10:42:44.659Z,1.80
2019-01-30T10:43:44.644Z,2.00
2019-01-30T10:44:44.661Z,0.80
2019-01-30T10:45:44.630Z,1.90
2019-01-30T10:46:44.620Z,1.20
2019-01-30T10:47:44.592Z,1.40
2019-01-30T10:48:44.595Z,1.50
2019-01-30T10:49:44.580Z,0.90
2019-01-30T10:50:44.558Z,2.30
2019-01-30T10:51:44.555Z,1.40
2019-01-30T10:52:44.550Z,1.40
2019-01-30T10:53:44.551Z,1.50
2019-01-30T10:54:44.519Z,1.70
2019-01-30T10:55:44.506Z,1.00
2019-01-30T10:56:44.522Z,0.90
2019-01-30T10:57:44.485Z,2.10
2019-01-30T10:58:44.514Z,2.60
2019-01-30T10:59:44.458Z,1.00
2019-01-30T11:00:44.460Z,1.30
2019-01-30T11:01:44.444Z,1.30
2019-01-30T11:02:46.426Z,1.20
2019-01-30T11:03:44.498Z,1.70
2019-01-30T11:04:44.436Z,2.10
2019-01-30T11:05:44.570Z,1.60
2019-01-30T11:06:44.399Z,1.40
2019-01-30T11:07:44.390Z,0.90
2019-01-30T11:08:44.430Z,1.00
2019-01-30T11:09:44.381Z,1.70
2019-01-30T11:10:44.358Z,1.60
2019-01-30T11:11:44.339Z,1.90
2019-01-30T11:12:44.348Z,1.00
2019-01-30T11:13:44.364Z,1.50
2019-01-30T11:14:44.328Z,1.20
2019-01-30T11:15:45.051Z,1.30
2019-01-30T11:16:44.288Z,0.90
2019-01-30T11:17:44.274Z,1.30
2019-01-30T11:18:44.285Z,1.90
2019-01-30T11:19:45.479Z,2.10
2019-01-30T11:20:44.270Z,1.40
2019-01-30T11:21:44.254Z,1.10
2019-01-30T11:22:44.219Z,2.30
2019-01-30T11:23:44.225Z,1.60
2019-01-30T11:24:44.211Z,1.90
2019-01-30T11:25:44.222Z,1.70
2019-01-30T11:26:44.198Z,1.50
2019-01-30T11:27:44.163Z,1.90
2019-01-30T11:28:44.169Z,1.30
2019-01-30T11:29:44.167Z,1.60
2019-01-30T11:30:51.404Z,1.10
2019-01-30T11:31:52.668Z,1.60
2019-01-30T11:32:44.119Z,1.40
2019-01-30T11:33:44.119Z,1.80
2019-01-30T11:34:44.117Z,1.30
2019-01-30T11:35:44.177Z,1.90
2019-01-30T11:36:44.088Z,1.50
2019-01-30T11:37:44.067Z,1.30
2019-01-30T11:38:44.069Z,0.90
2019-01-30T11:39:44.064Z,1.60
2019-01-30T11:40:44.024Z,1.10
2019-01-30T11:41:44.024Z,1.90
2019-01-30T11:42:44.044Z,1.20
2019-01-30T11:43:44.021Z,1.40
2019-01-30T11:44:43.984Z,1.80
2019-01-30T11:45:43.990Z,1.50
2019-01-30T11:46:43.961Z,1.90
2019-01-30T11:47:43.975Z,1.00
2019-01-30T11:48:43.982Z,1.30
2019-01-30T11:49:43.943Z,1.10
2019-01-30T11:50:43.943Z,1.90
2019-01-30T11:51:43.957Z,1.30
2019-01-30T11:52:43.908Z,1.10
2019-01-30T11:53:43.909Z,1.30
2019-01-30T11:54:43.898Z,1.40
2019-01-30T11:55:43.881Z,1.60
2019-01-30T11:56:43.870Z,1.80
2019-01-30T11:57:43.865Z,1.00
2019-01-30T11:58:43.876Z,1.10
2019-01-30T11:59:43.824Z,1.50
2019-01-30T12:00:43.828Z,1.90
2019-01-30T12:01:43.812Z,1.50
2019-01-30T12:02:47.804Z,1.20
2019-01-30T12:03:44.579Z,2.50
2019-01-30T12:04:43.774Z,0.80
2019-01-30T12:05:43.775Z,1.00
2019-01-30T12:06:43.767Z,0.80
2019-01-30T12:07:43.765Z,1.40
2019-01-30T12:08:43.820Z,2.30
2019-01-30T12:09:43.784Z,2.10
2019-01-30T12:10:43.723Z,1.20
2019-01-30T12:11:43.705Z,1.40
2019-01-30T12:12:43.709Z,1.40
2019-01-30T12:13:43.695Z,1.20
2019-01-30T12:14:43.696Z,1.50
2019-01-30T12:15:43.690Z,1.40
2019-01-30T12:16:43.658Z,0.90
2019-01-30T12:17:43.652Z,1.10
2019-01-30T12:18:43.668Z,1.10
2019-01-30T12:19:43.637Z,2.10
2019-01-30T12:20:43.611Z,2.00
2019-01-30T12:21:43.611Z,1.10
2019-01-30T12:22:43.600Z,1.70
2019-01-30T12:23:43.593Z,1.10
2019-01-30T12:24:43.568Z,1.70
2019-01-30T12:25:43.571Z,1.30
2019-01-30T12:26:43.554Z,0.80
2019-01-30T12:27:44.101Z,1.40
2019-01-30T12:28:50.593Z,1.00
2019-01-30T12:29:43.517Z,1.70
2019-01-30T12:30:43.503Z,1.00
2019-01-30T12:31:43.502Z,0.80
2019-01-30T12:32:43.471Z,1.60
2019-01-30T12:33:43.523Z,1.70
2019-01-30T12:34:43.457Z,1.10
2019-01-30T12:35:43.447Z,1.50
2019-01-30T12:36:43.437Z,1.10
2019-01-30T12:37:43.429Z,1.30
2019-01-30T12:39:55.044Z,1.70
2019-01-30T12:40:55.002Z,2.30
2019-01-30T12:41:54.986Z,2.20
2019-01-30T12:42:54.968Z,2.60
2019-01-30T12:43:54.991Z,1.40
2019-01-30T12:44:54.963Z,1.10
2019-01-30T12:45:54.958Z,1.70
2019-01-30T12:46:54.944Z,0.90
2019-01-30T12:47:54.944Z,1.60
2019-01-30T12:48:54.956Z,3.80
2019-01-30T12:49:54.897Z,1.30
2019-01-30T12:50:54.902Z,2.30
2019-01-30T12:51:54.889Z,1.60
2019-01-30T12:52:54.884Z,1.80
2019-01-30T12:53:54.883Z,1.80
2019-01-30T12:54:54.864Z,2.10
2019-01-30T12:55:54.867Z,1.60
2019-01-30T12:56:54.839Z,2.00
2019-01-30T12:57:54.826Z,1.20
2019-01-30T12:58:54.827Z,3.40
2019-01-30T12:59:54.794Z,1.70
2019-01-30T13:00:54.798Z,2.20
2019-01-30T13:01:54.844Z,1.60
2019-01-30T13:02:54.762Z,2.40
2019-01-30T13:03:54.761Z,1.80
2019-01-30T13:04:54.759Z,2.00
2019-01-30T13:05:54.725Z,1.50
2019-01-30T13:06:54.721Z,2.50
2019-01-30T13:07:54.708Z,1.40
2019-01-30T13:08:54.710Z,1.30
2019-01-30T13:09:54.727Z,2.10
2019-01-30T13:10:54.689Z,1.40
2019-01-30T13:11:54.682Z,2.30
2019-01-30T13:12:54.655Z,1.40
2019-01-30T13:13:54.667Z,2.00
2019-01-30T13:14:54.671Z,1.40
2019-01-30T13:15:54.642Z,1.90
2019-01-30T13:16:54.633Z,2.10
2019-01-30T13:17:54.632Z,2.10
2019-01-30T13:18:54.621Z,1.90
2019-01-30T13:19:54.612Z,2.30